createdAt,value
2022-10-03T00:00:12.759Z,15.00
2022-10-03T00:03:33.127Z,13.60
2022-10-03T00:06:56.607Z,15.45
2022-10-03T00:09:56.433Z,12.70
2022-10-03T00:13:23.384Z,9.63
2022-10-03T00:16:09.160Z,14.43
2022-10-03T00:19:20.476Z,10.90
2022-10-03T00:22:30.039Z,14.80
2022-10-03T00:25:24.508Z,11.10
2022-10-03T00:31:12.762Z,9.73
2022-10-03T00:34:00.771Z,18.38
2022-10-03T00:37:24.496Z,9.50
2022-10-03T00:40:46.506Z,16.92
2022-10-03T00:43:38.684Z,13.38
2022-10-03T00:46:55.307Z,15.50
2022-10-03T00:50:18.103Z,15.32
2022-10-03T00:53:13.487Z,11.18
2022-10-03T00:56:17.470Z,12.70
2022-10-03T00:59:42.552Z,11.68
2022-10-03T01:02:49.369Z,11.25
2022-10-03T01:05:56.970Z,16.23
2022-10-03T01:09:09.656Z,9.07
2022-10-03T01:12:04.849Z,9.68
2022-10-03T01:15:03.176Z,13.02
2022-10-03T01:18:11.136Z,13.65
2022-10-03T01:21:09.820Z,12.52
2022-10-03T01:24:16.060Z,11.82
2022-10-03T01:27:07.817Z,9.57
2022-10-03T01:30:19.658Z,11.30
2022-10-03T01:33:10.641Z,13.27
2022-10-03T01:36:03.590Z,14.98
2022-10-03T01:39:19.150Z,11.30
2022-10-03T01:42:07.723Z,13.15
2022-10-03T01:45:17.296Z,10.18
2022-10-03T01:48:46.637Z,11.73
2022-10-03T01:52:11.300Z,13.20
2022-10-03T01:55:08.290Z,12.07
2022-10-03T01:58:01.476Z,11.07
2022-10-03T02:00:54.069Z,13.02
2022-10-03T02:03:55.726Z,10.60
2022-10-03T02:07:07.556Z,10.98
2022-10-03T02:10:48.243Z,15.13
2022-10-03T02:13:42.757Z,24.67
2022-10-03T02:16:41.908Z,10.98
2022-10-03T02:19:48.931Z,8.80
2022-10-03T02:22:46.152Z,8.95
2022-10-03T02:26:17.193Z,7.15
2022-10-03T02:29:08.960Z,8.82
2022-10-03T02:32:12.564Z,10.80
2022-10-03T02:35:37.360Z,9.25
2022-10-03T02:38:53.997Z,10.40
2022-10-03T02:41:52.268Z,11.70
2022-10-03T02:45:14.047Z,8.57
2022-10-03T02:48:30.271Z,11.85
2022-10-03T02:51:24.205Z,8.60
2022-10-03T02:54:46.668Z,10.93
2022-10-03T02:57:42.227Z,12.02
2022-10-03T03:00:46.819Z,10.27
2022-10-03T03:03:58.082Z,8.73
2022-10-03T03:07:05.885Z,9.90
2022-10-03T03:10:13.672Z,7.78
2022-10-03T03:13:26.169Z,14.57
2022-10-03T03:16:27.809Z,11.73
2022-10-03T03:19:38.427Z,9.07
2022-10-03T03:22:36.552Z,7.90
2022-10-03T03:25:53.102Z,8.82
2022-10-03T03:28:55.575Z,10.32
2022-10-03T03:32:03.166Z,10.85
2022-10-03T03:35:13.777Z,9.50
2022-10-03T03:38:07.080Z,11.52
2022-10-03T03:41:14.946Z,10.23
2022-10-03T03:44:39.945Z,8.90
2022-10-03T03:47:43.280Z,10.15
2022-10-03T03:50:45.695Z,10.45
2022-10-03T03:53:49.711Z,10.45
2022-10-03T03:56:54.223Z,12.70
2022-10-03T03:59:55.359Z,9.75
2022-10-03T04:03:09.048Z,8.50
2022-10-03T04:06:41.721Z,10.90
2022-10-03T04:09:46.570Z,8.35
2022-10-03T04:12:55.893Z,12.30
2022-10-03T04:15:59.625Z,8.88
2022-10-03T04:19:00.067Z,11.07
2022-10-03T04:21:51.695Z,9.93
2022-10-03T04:24:50.161Z,12.23
2022-10-03T04:28:02.157Z,10.82
2022-10-03T04:31:36.841Z,7.32
2022-10-03T04:35:11.622Z,11.17
2022-10-03T04:38:21.399Z,10.13
2022-10-03T04:41:42.225Z,9.10
2022-10-03T04:44:31.683Z,9.68
2022-10-03T04:47:43.175Z,8.18
2022-10-03T04:50:44.016Z,6.47
2022-10-03T04:53:54.127Z,12.25
2022-10-03T04:57:00.761Z,10.80
2022-10-03T05:00:21.672Z,6.75
2022-10-03T05:03:22.343Z,10.70
2022-10-03T05:06:48.652Z,7.93
2022-10-03T05:10:05.853Z,9.35
2022-10-03T05:13:11.311Z,5.95
2022-10-03T05:16:19.530Z,7.28
2022-10-03T05:19:05.974Z,5.07
2022-10-03T05:22:12.460Z,8.35
2022-10-03T05:25:29.299Z,6.55
2022-10-03T05:28:38.801Z,8.48
2022-10-03T05:31:53.610Z,10.07
2022-10-03T05:34:47.808Z,12.52
2022-10-03T05:40:37.695Z,6.53
2022-10-03T05:44:02.866Z,6.30
2022-10-03T05:47:31.307Z,7.75
2022-10-03T05:50:35.067Z,12.85
2022-10-03T05:53:47.764Z,6.68
2022-10-03T05:56:56.811Z,6.43
2022-10-03T06:00:05.801Z,8.52
2022-10-03T06:03:49.647Z,7.38
2022-10-03T06:06:54.130Z,8.43
2022-10-03T06:10:14.453Z,8.90
2022-10-03T06:13:32.128Z,7.28
2022-10-03T06:16:46.910Z,12.20
2022-10-03T06:23:00.450Z,10.52
2022-10-03T06:26:10.632Z,9.25
2022-10-03T06:29:02.529Z,7.82
2022-10-03T06:32:20.192Z,9.27
2022-10-03T06:35:40.173Z,6.28
2022-10-03T06:39:07.375Z,7.00
2022-10-03T06:42:08.054Z,10.52
2022-10-03T06:45:37.891Z,10.60
2022-10-03T06:48:48.797Z,9.25
2022-10-03T06:51:51.962Z,5.43
2022-10-03T06:55:06.271Z,6.78
2022-10-03T06:58:12.273Z,12.02
2022-10-03T07:01:07.175Z,10.00
2022-10-03T07:04:38.363Z,10.00
2022-10-03T07:07:27.327Z,8.27
2022-10-03T07:10:39.162Z,9.23
2022-10-03T07:14:08.185Z,11.45
2022-10-03T07:17:17.157Z,7.00
2022-10-03T07:20:19.897Z,10.65
2022-10-03T07:23:17.647Z,13.98
2022-10-03T07:26:15.499Z,12.38
2022-10-03T07:29:19.168Z,8.82
2022-10-03T07:32:05.273Z,11.40
2022-10-03T07:34:59.856Z,12.45
2022-10-03T07:38:49.452Z,12.93
2022-10-03T07:41:41.744Z,10.57
2022-10-03T07:44:31.024Z,11.45
2022-10-03T07:47:54.304Z,10.60
2022-10-03T07:50:51.188Z,10.93
2022-10-03T07:53:59.271Z,11.38
2022-10-03T07:57:01.428Z,11.95
2022-10-03T08:00:13.838Z,11.98
2022-10-03T08:03:25.191Z,8.63
2022-10-03T08:06:35.231Z,18.27
2022-10-03T08:09:21.359Z,17.58
2022-10-03T08:12:25.543Z,13.18
2022-10-03T08:15:29.897Z,17.77
2022-10-03T08:19:05.276Z,9.18
2022-10-03T08:22:33.690Z,14.52
2022-10-03T08:25:28.327Z,11.25
2022-10-03T08:28:32.235Z,9.52
2022-10-03T08:31:25.889Z,11.40
2022-10-03T08:34:18.119Z,12.40
2022-10-03T08:37:35.093Z,11.68
2022-10-03T08:40:58.157Z,11.45
2022-10-03T08:44:20.978Z,10.45
2022-10-03T08:47:21.823Z,10.40
2022-10-03T08:50:34.562Z,12.10
2022-10-03T08:53:50.311Z,18.08
2022-10-03T08:56:36.109Z,13.88
2022-10-03T08:59:27.840Z,13.07
2022-10-03T09:02:44.310Z,15.63
2022-10-03T09:05:33.461Z,14.20
2022-10-03T09:08:51.026Z,12.02
2022-10-03T09:12:03.689Z,15.07
2022-10-03T09:14:52.381Z,11.45
2022-10-03T09:18:05.396Z,11.43
2022-10-03T09:21:26.162Z,12.02
2022-10-03T09:24:32.339Z,19.38
2022-10-03T09:27:39.669Z,13.27
2022-10-03T09:31:04.103Z,14.70
2022-10-03T09:34:28.228Z,20.27
2022-10-03T09:37:39.376Z,16.38
2022-10-03T09:40:44.044Z,12.13
2022-10-03T09:44:03.942Z,11.95
2022-10-03T09:47:26.862Z,20.60
2022-10-03T09:50:36.453Z,15.02
2022-10-03T09:53:28.140Z,13.07
2022-10-03T09:56:26.483Z,11.52
2022-10-03T09:59:36.459Z,12.65
2022-10-03T10:03:03.244Z,11.85
2022-10-03T10:06:24.941Z,16.40
2022-10-03T10:09:23.327Z,16.92
2022-10-03T10:12:30.687Z,13.10
2022-10-03T10:15:34.521Z,18.27
2022-10-03T10:18:40.365Z,19.92
2022-10-03T10:21:44.705Z,16.27
2022-10-03T10:24:46.800Z,13.85
2022-10-03T10:27:42.190Z,13.00
2022-10-03T10:30:54.184Z,10.25
2022-10-03T10:33:55.059Z,15.55
2022-10-03T10:37:19.410Z,14.57
2022-10-03T10:40:45.865Z,8.57
2022-10-03T10:44:11.667Z,5.97
2022-10-03T10:47:20.385Z,7.80
2022-10-03T10:50:16.396Z,8.88
2022-10-03T10:53:40.186Z,6.78
2022-10-03T10:56:27.251Z,11.93
2022-10-03T10:59:57.972Z,11.80
2022-10-03T11:03:11.834Z,9.23
2022-10-03T11:06:17.594Z,12.52
2022-10-03T11:09:34.432Z,9.10
2022-10-03T11:12:45.424Z,11.23
2022-10-03T11:16:26.960Z,13.45
2022-10-03T11:19:32.074Z,8.20
2022-10-03T11:22:53.138Z,8.07
2022-10-03T11:26:12.673Z,8.95
2022-10-03T11:29:04.218Z,9.05
2022-10-03T11:32:31.561Z,9.18
2022-10-03T11:35:40.807Z,8.35
2022-10-03T11:38:32.994Z,10.38
2022-10-03T11:41:39.625Z,9.70
2022-10-03T11:44:32.653Z,10.25
2022-10-03T11:48:06.561Z,6.95
2022-10-03T11:51:00.752Z,11.40
2022-10-03T11:54:29.947Z,6.55
2022-10-03T11:57:34.912Z,7.93
2022-10-03T12:00:23.395Z,10.98
2022-10-03T12:03:26.427Z,10.95
2022-10-03T12:06:47.218Z,9.05
2022-10-03T12:10:03.851Z,7.20
2022-10-03T12:12:56.080Z,9.07
2022-10-03T12:15:49.199Z,6.88
2022-10-03T12:18:42.433Z,8.48
2022-10-03T12:22:14.543Z,8.55
2022-10-03T12:25:30.256Z,8.75
2022-10-03T12:28:52.100Z,12.13
2022-10-03T12:31:45.375Z,10.13
2022-10-03T12:34:58.861Z,10.55
2022-10-03T12:37:50.620Z,8.05
2022-10-03T12:40:45.012Z,6.72
2022-10-03T12:43:52.507Z,9.40
2022-10-03T12:47:05.268Z,9.88
2022-10-03T12:50:06.112Z,9.63
2022-10-03T12:52:55.231Z,10.07
2022-10-03T12:56:07.431Z,8.60
2022-10-03T12:59:04.369Z,8.00
2022-10-03T13:02:06.248Z,7.95
2022-10-03T13:05:29.449Z,11.75
2022-10-03T13:08:28.931Z,11.70
2022-10-03T13:11:39.673Z,11.25
2022-10-03T13:14:48.010Z,6.75
2022-10-03T13:17:46.732Z,9.25
2022-10-03T13:20:40.923Z,13.85
2022-10-03T13:23:57.556Z,9.52
2022-10-03T13:27:13.612Z,9.00
2022-10-03T13:30:43.468Z,10.85
2022-10-03T13:33:50.713Z,12.77
2022-10-03T13:36:49.589Z,6.68
2022-10-03T13:39:47.804Z,6.20
2022-10-03T13:42:40.726Z,7.63
2022-10-03T13:45:28.194Z,9.88
2022-10-03T13:48:22.971Z,6.55
2022-10-03T13:51:41.744Z,9.70
2022-10-03T13:54:50.220Z,6.50
2022-10-03T13:57:45.074Z,11.38
2022-10-03T14:00:50.237Z,6.07
2022-10-03T14:03:58.808Z,11.40
2022-10-03T14:07:38.547Z,8.70
2022-10-03T14:10:45.609Z,8.02
2022-10-03T14:13:38.636Z,11.80
2022-10-03T14:16:53.855Z,9.97
2022-10-03T14:20:09.575Z,9.48
2022-10-03T14:22:56.888Z,11.48
2022-10-03T14:25:57.940Z,9.13
2022-10-03T14:28:54.556Z,7.53
2022-10-03T14:31:41.252Z,11.25
2022-10-03T14:34:33.800Z,11.68
2022-10-03T14:37:30.976Z,9.27
2022-10-03T14:40:35.624Z,9.30
2022-10-03T14:43:43.594Z,12.10
2022-10-03T14:46:36.009Z,9.50
2022-10-03T14:49:53.525Z,10.40
2022-10-03T14:52:47.664Z,8.15
2022-10-03T14:55:55.998Z,7.85
2022-10-03T14:58:51.398Z,10.23
2022-10-03T15:01:49.255Z,12.25
2022-10-03T15:04:39.484Z,12.18
2022-10-03T15:07:37.578Z,9.57
2022-10-03T15:10:26.793Z,6.78
2022-10-03T15:13:14.604Z,7.10
2022-10-03T15:16:01.959Z,11.23
2022-10-03T15:18:58.446Z,7.10
2022-10-03T15:21:47.434Z,6.38
2022-10-03T15:24:36.170Z,6.57
2022-10-03T15:27:24.161Z,6.70
2022-10-03T15:30:21.993Z,11.27
2022-10-03T15:33:32.235Z,10.70
2022-10-03T15:36:25.543Z,10.70
2022-10-03T15:39:23.214Z,7.25
2022-10-03T15:42:09.473Z,10.57
2022-10-03T15:44:58.323Z,9.13
2022-10-03T15:47:47.488Z,10.30
2022-10-03T15:50:41.176Z,8.65
2022-10-03T15:53:37.431Z,9.13
2022-10-03T15:56:29.813Z,10.90
2022-10-03T15:59:27.863Z,9.50
2022-10-03T16:02:30.193Z,10.93
2022-10-03T16:05:21.229Z,6.93
2022-10-03T16:08:19.835Z,8.93
2022-10-03T16:11:26.292Z,9.93
2022-10-03T16:14:22.924Z,9.52
2022-10-03T16:17:28.006Z,9.60
2022-10-03T16:20:41.502Z,7.43
2022-10-03T16:23:28.791Z,7.43
2022-10-03T16:26:29.248Z,9.00
2022-10-03T16:29:32.577Z,9.93
2022-10-03T16:32:27.739Z,9.07
2022-10-03T16:35:34.759Z,9.52
2022-10-03T16:38:32.705Z,9.15
2022-10-03T16:41:23.503Z,9.05
2022-10-03T16:44:39.649Z,7.80
2022-10-03T16:47:36.542Z,7.93
2022-10-03T16:50:25.552Z,8.50
2022-10-03T16:53:12.678Z,7.78
2022-10-03T16:56:08.071Z,10.25
2022-10-03T16:59:06.533Z,13.55
2022-10-03T17:02:21.150Z,6.22
2022-10-03T17:05:10.471Z,7.18
2022-10-03T17:08:06.629Z,9.48
2022-10-03T17:11:07.464Z,6.35
2022-10-03T17:14:02.494Z,12.75
2022-10-03T17:16:57.133Z,8.48
2022-10-03T17:19:55.684Z,9.50
2022-10-03T17:22:45.037Z,11.68
2022-10-03T17:26:03.531Z,13.65
2022-10-03T17:29:11.008Z,16.75
2022-10-03T17:32:27.876Z,11.23
2022-10-03T17:35:20.467Z,11.27
2022-10-03T17:38:48.802Z,7.15
2022-10-03T17:41:40.282Z,18.35
2022-10-03T17:45:20.867Z,12.65
2022-10-03T17:48:21.412Z,12.93
2022-10-03T17:51:29.527Z,9.15
2022-10-03T17:54:20.697Z,7.60
2022-10-03T17:57:24.814Z,7.20
2022-10-03T18:00:26.754Z,11.57
2022-10-03T18:03:31.547Z,10.05
2022-10-03T18:06:29.768Z,9.93
2022-10-03T18:09:15.496Z,10.63
2022-10-03T18:12:39.826Z,16.15
2022-10-03T18:15:47.028Z,16.85
2022-10-03T18:19:07.484Z,14.80
2022-10-03T18:22:08.082Z,14.15
2022-10-03T18:26:19.654Z,11.30
2022-10-03T18:29:06.444Z,15.63
2022-10-03T18:32:01.989Z,14.25
2022-10-03T18:34:58.274Z,16.08
2022-10-03T18:37:44.293Z,19.25
2022-10-03T18:40:35.876Z,13.73
2022-10-03T18:43:50.772Z,16.40
2022-10-03T18:46:42.595Z,16.05
2022-10-03T18:49:35.469Z,15.65
2022-10-03T18:52:29.826Z,16.43
2022-10-03T18:55:31.194Z,14.82
2022-10-03T18:58:37.204Z,16.40
2022-10-03T19:01:54.319Z,16.15
2022-10-03T19:04:45.755Z,19.30
2022-10-03T19:07:37.974Z,15.80
2022-10-03T19:10:36.023Z,16.15
2022-10-03T19:13:34.981Z,13.80
2022-10-03T19:16:49.905Z,16.77
2022-10-03T19:19:59.226Z,12.25
2022-10-03T19:23:07.648Z,16.38
2022-10-03T19:25:57.600Z,19.13
2022-10-03T19:28:49.768Z,14.75
2022-10-03T19:31:40.857Z,12.70
2022-10-03T19:34:42.596Z,11.95
2022-10-03T19:37:49.328Z,14.32
2022-10-03T19:41:00.470Z,16.95
2022-10-03T19:43:52.083Z,16.52
2022-10-03T19:47:03.050Z,12.25
2022-10-03T19:50:14.146Z,14.23
2022-10-03T19:53:00.437Z,20.20
2022-10-03T19:55:47.848Z,11.32
2022-10-03T19:58:34.156Z,11.02
2022-10-03T20:01:21.299Z,15.68
2022-10-03T20:04:07.343Z,15.25
2022-10-03T20:07:17.455Z,17.45
2022-10-03T20:10:23.221Z,13.55
2022-10-03T20:13:11.229Z,15.48
2022-10-03T20:15:58.500Z,17.80
2022-10-03T20:18:48.990Z,16.55
2022-10-03T20:21:36.434Z,14.63
2022-10-03T20:24:31.300Z,13.27
2022-10-03T20:27:52.817Z,14.63
2022-10-03T20:30:45.743Z,21.42
2022-10-03T20:33:35.163Z,19.67
2022-10-03T20:36:32.476Z,18.90
2022-10-03T20:39:33.732Z,14.23
2022-10-03T20:42:26.599Z,15.07
2022-10-03T20:45:25.339Z,17.95
2022-10-03T20:48:23.239Z,14.13
2022-10-03T20:51:23.153Z,17.05
2022-10-03T20:54:55.254Z,16.55
2022-10-03T20:58:10.031Z,16.55
2022-10-03T21:01:10.206Z,14.52
2022-10-03T21:04:23.685Z,13.93
2022-10-03T21:07:12.913Z,15.90
2022-10-03T21:10:13.341Z,18.98
2022-10-03T21:13:04.952Z,18.95
2022-10-03T21:16:02.397Z,18.90
2022-10-03T21:18:56.752Z,15.52
2022-10-03T21:21:51.599Z,18.63
2022-10-03T21:24:54.355Z,17.67
2022-10-03T21:27:51.812Z,22.10
2022-10-03T21:30:48.157Z,24.90
2022-10-03T21:34:02.532Z,19.92
2022-10-03T21:36:56.771Z,16.50
2022-10-03T21:39:56.245Z,17.73
2022-10-03T21:42:56.520Z,18.27
2022-10-03T21:45:54.491Z,13.95
2022-10-03T21:49:05.520Z,18.95
2022-10-03T21:52:22.697Z,18.05
2022-10-03T21:55:51.329Z,19.77
2022-10-03T21:59:09.347Z,24.45
2022-10-03T22:02:05.063Z,16.77
2022-10-03T22:05:06.437Z,13.63
2022-10-03T22:07:52.245Z,18.83
2022-10-03T22:10:45.716Z,18.40
2022-10-03T22:13:36.482Z,18.58
2022-10-03T22:16:33.681Z,20.58
2022-10-03T22:19:27.995Z,16.08
2022-10-03T22:22:46.256Z,18.98
2022-10-03T22:25:49.120Z,19.73
2022-10-03T22:28:45.736Z,15.95
2022-10-03T22:31:57.886Z,17.60
2022-10-03T22:34:46.894Z,19.00
2022-10-03T22:37:33.695Z,19.27
2022-10-03T22:40:20.676Z,16.17
2022-10-03T22:43:10.136Z,16.20
2022-10-03T22:45:58.445Z,16.48
2022-10-03T22:48:50.190Z,17.63
2022-10-03T22:51:40.885Z,17.52
2022-10-03T22:54:33.828Z,17.23
2022-10-03T22:57:21.312Z,20.27
2022-10-03T23:00:16.619Z,18.13
2022-10-03T23:03:11.031Z,17.42
2022-10-03T23:06:40.720Z,18.05
2022-10-03T23:09:42.050Z,15.35
2022-10-03T23:12:40.618Z,24.05
2022-10-03T23:15:28.562Z,20.73
2022-10-03T23:18:40.230Z,20.83
2022-10-03T23:21:26.899Z,21.70
2022-10-03T23:24:34.456Z,23.02
2022-10-03T23:27:38.357Z,24.52
2022-10-03T23:30:24.339Z,19.52
2022-10-03T23:33:17.083Z,23.83
2022-10-03T23:36:18.271Z,20.25
2022-10-03T23:39:04.320Z,23.25
2022-10-03T23:42:03.063Z,20.98
2022-10-03T23:44:53.011Z,20.60
2022-10-03T23:47:41.193Z,24.45
2022-10-03T23:50:47.106Z,19.83
2022-10-03T23:53:42.252Z,20.33
2022-10-03T23:56:37.381Z,20.13
2022-10-03T23:59:25.336Z,24.02
